createdAt,value
2019-04-16T00:01:01.786Z,4.84
2019-04-16T00:02:13.046Z,4.84
2019-04-16T00:03:23.887Z,4.83
2019-04-16T00:04:35.041Z,4.83
2019-04-16T00:05:45.792Z,4.81
2019-04-16T00:06:56.530Z,4.79
2019-04-16T00:08:19.490Z,4.77
2019-04-16T00:09:18.023Z,4.77
2019-04-16T00:10:28.780Z,4.75
2019-04-16T00:11:40.018Z,4.76
2019-04-16T00:12:50.764Z,4.72
2019-04-16T00:14:03.666Z,4.69
2019-04-16T00:15:12.277Z,4.67
2019-04-16T00:16:23.515Z,4.65
2019-04-16T00:17:34.753Z,4.63
2019-04-16T00:18:56.693Z,4.61
2019-04-16T00:19:56.227Z,4.60
2019-04-16T00:21:10.017Z,4.58
2019-04-16T00:22:18.225Z,4.55
2019-04-16T00:23:29.260Z,4.54
2019-04-16T00:24:40.499Z,4.53
2019-04-16T00:25:52.061Z,4.51
2019-04-16T00:27:01.976Z,4.51
2019-04-16T00:28:12.714Z,4.49
2019-04-16T00:29:23.448Z,4.46
2019-04-16T00:30:35.750Z,4.45
2019-04-16T00:31:45.470Z,4.43
2019-04-16T00:32:56.254Z,4.42
2019-04-16T00:34:07.955Z,4.39
2019-04-16T00:35:19.184Z,4.38
2019-04-16T00:36:29.917Z,4.37
2019-04-16T00:37:40.662Z,4.35
2019-04-16T00:38:53.895Z,4.34
2019-04-16T00:40:02.133Z,4.33
2019-04-16T00:41:13.476Z,4.32
2019-04-16T00:42:24.715Z,4.31
2019-04-16T00:43:35.460Z,4.30
2019-04-16T00:44:46.682Z,4.30
2019-04-16T00:45:57.572Z,4.29
2019-04-16T00:47:08.157Z,4.29
2019-04-16T00:48:18.908Z,4.28
2019-04-16T00:49:29.649Z,4.28
2019-04-16T00:50:40.390Z,4.27
2019-04-16T00:51:51.128Z,4.27
2019-04-16T00:53:02.016Z,4.25
2019-04-16T00:54:13.102Z,4.24
2019-04-16T00:55:23.837Z,4.24
2019-04-16T00:56:34.574Z,4.23
2019-04-16T00:57:48.391Z,4.22
2019-04-16T00:58:56.530Z,4.20
2019-04-16T01:00:07.760Z,4.20
2019-04-16T01:01:18.496Z,4.19
2019-04-16T01:02:29.246Z,4.18
2019-04-16T01:03:39.972Z,4.16
2019-04-16T01:04:50.708Z,4.15
2019-04-16T01:06:06.793Z,4.13
2019-04-16T01:07:12.660Z,4.11
2019-04-16T01:08:23.891Z,4.10
2019-04-16T01:09:34.627Z,4.09
2019-04-16T01:10:45.491Z,4.07
2019-04-16T01:11:56.237Z,4.06
2019-04-16T01:13:07.080Z,4.05
2019-04-16T01:14:17.684Z,4.03
2019-04-16T01:15:29.220Z,4.02
2019-04-16T01:16:39.232Z,4.01
2019-04-16T01:17:50.458Z,4.01
2019-04-16T01:19:01.204Z,4.01
2019-04-16T01:20:13.108Z,4.00
2019-04-16T01:21:23.160Z,3.99
2019-04-16T01:22:33.919Z,3.98
2019-04-16T01:23:48.381Z,3.98
2019-04-16T01:24:55.885Z,3.97
2019-04-16T01:26:08.101Z,3.95
2019-04-16T01:27:18.822Z,3.93
2019-04-16T01:28:32.101Z,3.90
2019-04-16T01:29:40.282Z,3.88
2019-04-16T01:30:51.498Z,3.85
2019-04-16T01:32:02.227Z,3.82
2019-04-16T01:33:14.727Z,3.79
2019-04-16T01:34:23.691Z,3.75
2019-04-16T01:35:34.913Z,3.71
2019-04-16T01:36:46.162Z,3.67
2019-04-16T01:37:57.485Z,3.64
2019-04-16T01:39:17.694Z,3.61
2019-04-16T01:40:19.209Z,3.58
2019-04-16T01:41:29.049Z,3.55
2019-04-16T01:42:39.775Z,3.52
2019-04-16T01:43:50.501Z,3.48
2019-04-16T01:45:01.741Z,3.46
2019-04-16T01:46:12.431Z,3.43
2019-04-16T01:47:23.656Z,3.40
2019-04-16T01:48:38.601Z,3.38
2019-04-16T01:49:45.233Z,3.36
2019-04-16T01:50:56.480Z,3.34
2019-04-16T01:52:07.203Z,3.32
2019-04-16T01:53:18.383Z,3.31
2019-04-16T01:54:28.646Z,3.29
2019-04-16T01:55:42.318Z,3.28
2019-04-16T01:56:51.071Z,3.28
2019-04-16T01:58:03.527Z,3.28
2019-04-16T01:59:13.013Z,3.27
2019-04-16T02:00:23.729Z,3.26
2019-04-16T02:01:34.444Z,3.26
2019-04-16T02:02:46.284Z,3.26
2019-04-16T02:03:55.880Z,3.26
2019-04-16T02:05:06.605Z,3.26
2019-04-16T02:06:17.329Z,3.26
2019-04-16T02:07:28.680Z,3.27
2019-04-16T02:08:39.753Z,3.29
2019-04-16T02:09:50.982Z,3.31
2019-04-16T02:11:01.685Z,3.33
2019-04-16T02:12:14.065Z,3.34
2019-04-16T02:13:23.610Z,3.36
2019-04-16T02:14:34.349Z,3.37
2019-04-16T02:15:45.069Z,3.38
2019-04-16T02:16:56.641Z,3.39
2019-04-16T02:18:07.002Z,3.39
2019-04-16T02:19:18.237Z,3.40
2019-04-16T02:20:28.949Z,3.40
2019-04-16T02:21:41.467Z,3.41
2019-04-16T02:22:50.368Z,3.42
2019-04-16T02:24:01.158Z,3.43
2019-04-16T02:25:12.508Z,3.44
2019-04-16T02:26:23.527Z,3.45
2019-04-16T02:27:33.721Z,3.46
2019-04-16T02:28:44.435Z,3.46
2019-04-16T02:29:55.157Z,3.49
2019-04-16T02:31:13.119Z,3.50
2019-04-16T02:32:16.592Z,3.50
2019-04-16T02:33:27.801Z,3.50
2019-04-16T02:34:38.511Z,3.50
2019-04-16T02:35:49.237Z,3.50
2019-04-16T02:37:02.917Z,3.50
2019-04-16T02:38:13.181Z,3.50
2019-04-16T02:39:25.605Z,3.50
2019-04-16T02:40:33.074Z,3.50
2019-04-16T02:41:44.291Z,3.51
2019-04-16T02:42:54.995Z,3.51
2019-04-16T02:44:06.971Z,3.51
2019-04-16T02:45:22.620Z,3.51
2019-04-16T02:46:32.092Z,3.50
2019-04-16T02:47:41.802Z,3.48
2019-04-16T02:48:51.428Z,3.47
2019-04-16T02:50:00.271Z,3.45
2019-04-16T02:51:11.486Z,3.43
2019-04-16T02:52:22.196Z,3.41
2019-04-16T02:53:33.501Z,3.39
2019-04-16T02:54:44.182Z,3.37
2019-04-16T02:55:54.903Z,3.34
2019-04-16T02:57:05.605Z,3.31
2019-04-16T02:58:16.808Z,3.27
2019-04-16T02:59:27.526Z,3.22
2019-04-16T03:00:38.742Z,3.17
2019-04-16T03:01:51.911Z,3.14
2019-04-16T03:03:00.661Z,3.10
2019-04-16T03:04:11.478Z,3.04
2019-04-16T03:05:22.212Z,3.01
2019-04-16T03:06:32.924Z,2.97
2019-04-16T03:07:43.639Z,2.94
2019-04-16T03:08:54.339Z,2.91
2019-04-16T03:10:05.038Z,2.86
2019-04-16T03:11:17.031Z,2.82
2019-04-16T03:12:26.456Z,2.78
2019-04-16T03:13:37.165Z,2.75
2019-04-16T03:14:47.870Z,2.72
2019-04-16T03:15:58.579Z,2.68
2019-04-16T03:17:11.310Z,2.66
2019-04-16T03:18:20.982Z,2.63
2019-04-16T03:19:31.691Z,2.59
2019-04-16T03:20:42.387Z,2.56
2019-04-16T03:21:55.673Z,2.52
2019-04-16T03:23:06.080Z,2.49
2019-04-16T03:24:15.319Z,2.44
2019-04-16T03:25:26.030Z,2.42
2019-04-16T03:26:36.738Z,2.40
2019-04-16T03:27:47.454Z,2.39
2019-04-16T03:28:59.490Z,2.36
2019-04-16T03:30:09.834Z,2.36
2019-04-16T03:31:23.219Z,2.35
2019-04-16T03:32:35.377Z,2.35
2019-04-16T03:33:48.566Z,2.36
2019-04-16T03:34:54.186Z,2.38
2019-04-16T03:36:04.328Z,2.39
2019-04-16T03:37:15.057Z,2.41
2019-04-16T03:38:25.732Z,2.45
2019-04-16T03:39:36.435Z,2.47
2019-04-16T03:40:47.127Z,2.50
2019-04-16T03:41:57.853Z,2.50
2019-04-16T03:43:08.555Z,2.51
2019-04-16T03:44:19.252Z,2.52
2019-04-16T03:45:29.943Z,2.54
2019-04-16T03:46:46.081Z,2.55
2019-04-16T03:47:52.449Z,2.55
2019-04-16T03:49:03.037Z,2.55
2019-04-16T03:50:13.739Z,2.54
2019-04-16T03:51:24.441Z,2.53
2019-04-16T03:52:37.528Z,2.51
2019-04-16T03:53:46.548Z,2.50
2019-04-16T03:54:56.529Z,2.49
2019-04-16T03:56:07.222Z,2.47
2019-04-16T03:57:17.921Z,2.45
2019-04-16T03:58:28.614Z,2.43
2019-04-16T03:59:40.714Z,2.44
2019-04-16T04:00:50.507Z,2.44
2019-04-16T04:02:01.704Z,2.43
2019-04-16T04:03:12.907Z,2.41
2019-04-16T04:04:28.848Z,2.41
2019-04-16T04:05:35.634Z,2.40
2019-04-16T04:06:45.521Z,2.41
2019-04-16T04:07:56.216Z,2.40
2019-04-16T04:09:06.927Z,2.39
2019-04-16T04:10:29.540Z,2.40
2019-04-16T04:11:28.834Z,2.40
2019-04-16T04:12:39.537Z,2.41
2019-04-16T04:13:50.943Z,2.43
2019-04-16T04:15:02.417Z,2.44
2019-04-16T04:16:13.613Z,2.44
2019-04-16T04:17:24.316Z,2.45
2019-04-16T04:18:35.051Z,2.49
2019-04-16T04:19:46.237Z,2.50
2019-04-16T04:20:56.410Z,2.51
2019-04-16T04:22:07.596Z,2.52
2019-04-16T04:23:18.783Z,2.53
2019-04-16T04:24:31.463Z,2.54
2019-04-16T04:25:40.180Z,2.54
2019-04-16T04:26:51.881Z,2.56
2019-04-16T04:28:03.101Z,2.57
2019-04-16T04:29:13.796Z,2.60
2019-04-16T04:30:25.662Z,2.61
2019-04-16T04:31:35.197Z,2.62
2019-04-16T04:32:47.671Z,2.63
2019-04-16T04:33:57.117Z,2.64
2019-04-16T04:35:07.821Z,2.64
2019-04-16T04:36:19.323Z,2.64
2019-04-16T04:37:31.367Z,2.64
2019-04-16T04:38:40.391Z,2.63
2019-04-16T04:39:51.591Z,2.63
2019-04-16T04:41:02.793Z,2.64
2019-04-16T04:42:13.982Z,2.65
2019-04-16T04:43:25.188Z,2.65
2019-04-16T04:44:36.932Z,2.65
2019-04-16T04:45:46.587Z,2.66
2019-04-16T04:46:57.284Z,2.67
2019-04-16T04:48:11.132Z,2.68
2019-04-16T04:49:19.183Z,2.68
2019-04-16T04:50:32.402Z,2.69
2019-04-16T04:51:43.397Z,2.71
2019-04-16T04:52:51.763Z,2.72
2019-04-16T04:54:02.759Z,2.74
2019-04-16T04:55:13.492Z,2.75
2019-04-16T04:56:27.755Z,2.75
2019-04-16T04:57:35.414Z,2.75
2019-04-16T04:58:46.174Z,2.76
2019-04-16T04:59:58.373Z,2.75
2019-04-16T05:01:13.361Z,2.74
2019-04-16T05:02:20.262Z,2.75
2019-04-16T05:03:30.967Z,2.77
2019-04-16T05:04:41.714Z,2.78
2019-04-16T05:05:53.338Z,2.79
2019-04-16T05:07:04.813Z,2.82
2019-04-16T05:08:14.301Z,2.85
2019-04-16T05:09:25.515Z,2.87
2019-04-16T05:10:39.808Z,2.88
2019-04-16T05:11:49.490Z,2.90
2019-04-16T05:12:59.113Z,2.91
2019-04-16T05:14:09.818Z,2.93
2019-04-16T05:15:21.014Z,2.94
2019-04-16T05:16:34.354Z,2.96
2019-04-16T05:17:42.473Z,2.99
2019-04-16T05:18:53.649Z,3.01
2019-04-16T05:20:04.488Z,3.03
2019-04-16T05:21:18.017Z,3.06
2019-04-16T05:22:25.905Z,3.09
2019-04-16T05:23:37.804Z,3.10
2019-04-16T05:24:48.329Z,3.12
2019-04-16T05:25:59.538Z,3.15
2019-04-16T05:27:10.719Z,3.17
2019-04-16T05:28:21.873Z,3.20
2019-04-16T05:29:32.590Z,3.23
2019-04-16T05:30:43.285Z,3.26
2019-04-16T05:31:54.447Z,3.30
2019-04-16T05:33:05.762Z,3.34
2019-04-16T05:34:17.943Z,3.38
2019-04-16T05:35:27.677Z,3.40
2019-04-16T05:36:40.240Z,3.44
2019-04-16T05:37:51.473Z,3.45
2019-04-16T05:39:03.556Z,3.50
2019-04-16T05:40:11.541Z,3.53
2019-04-16T05:41:22.755Z,3.56
2019-04-16T05:42:33.451Z,3.60
2019-04-16T05:43:44.160Z,3.63
2019-04-16T05:44:54.868Z,3.67
2019-04-16T05:46:08.725Z,3.70
2019-04-16T05:47:18.291Z,3.73
2019-04-16T05:48:27.989Z,3.76
2019-04-16T05:49:39.195Z,3.80
2019-04-16T05:50:49.924Z,3.83
2019-04-16T05:52:03.759Z,3.87
2019-04-16T05:53:13.660Z,3.91
2019-04-16T05:54:24.250Z,3.95
2019-04-16T05:55:34.972Z,3.99
2019-04-16T05:56:45.688Z,4.04
2019-04-16T05:57:58.192Z,4.09
2019-04-16T05:59:07.608Z,4.15
2019-04-16T06:00:18.314Z,4.20
2019-04-16T06:01:29.545Z,4.26
2019-04-16T06:02:40.745Z,4.31
2019-04-16T06:03:53.326Z,4.35
2019-04-16T06:05:02.675Z,4.43
2019-04-16T06:06:13.542Z,4.50
2019-04-16T06:07:24.103Z,4.58
2019-04-16T06:08:35.319Z,4.65
2019-04-16T06:09:46.537Z,4.71
2019-04-16T06:10:57.826Z,4.81
2019-04-16T06:12:09.404Z,4.88
2019-04-16T06:13:19.733Z,4.96
2019-04-16T06:14:30.453Z,5.04
2019-04-16T06:15:41.172Z,5.13
2019-04-16T06:16:53.356Z,5.21
2019-04-16T06:18:05.416Z,5.26
2019-04-16T06:19:13.378Z,5.33
2019-04-16T06:20:24.102Z,5.40
2019-04-16T06:21:34.836Z,5.47
2019-04-16T06:22:45.565Z,5.52
2019-04-16T06:23:56.295Z,5.59
2019-04-16T06:25:09.311Z,5.63
2019-04-16T06:26:17.756Z,5.68
2019-04-16T06:27:28.496Z,5.74
2019-04-16T06:28:39.218Z,5.78
2019-04-16T06:29:49.952Z,5.83
2019-04-16T06:31:05.013Z,5.88
2019-04-16T06:32:12.238Z,5.95
2019-04-16T06:33:22.679Z,6.01
2019-04-16T06:34:33.474Z,6.06
2019-04-16T06:35:44.155Z,6.14
2019-04-16T06:36:54.904Z,6.20
2019-04-16T06:38:06.140Z,6.28
2019-04-16T06:39:16.883Z,6.33
2019-04-16T06:40:31.698Z,6.39
2019-04-16T06:41:42.035Z,6.45
2019-04-16T06:42:51.467Z,6.50
2019-04-16T06:44:03.872Z,6.56
2019-04-16T06:45:12.083Z,6.63
2019-04-16T06:46:24.477Z,6.70
2019-04-16T06:47:35.232Z,6.80
2019-04-16T06:48:46.707Z,6.88
2019-04-16T06:49:57.216Z,6.96
2019-04-16T06:51:11.639Z,7.03
2019-04-16T06:52:18.994Z,7.08
2019-04-16T06:53:30.714Z,7.16
2019-04-16T06:54:40.214Z,7.23
2019-04-16T06:55:50.959Z,7.29
2019-04-16T06:57:01.745Z,7.34
2019-04-16T06:58:15.837Z,7.39
2019-04-16T06:59:26.549Z,7.43
2019-04-16T07:00:35.948Z,7.49
2019-04-16T07:01:47.189Z,7.52
2019-04-16T07:03:02.519Z,7.59
2019-04-16T07:04:09.208Z,7.66
2019-04-16T07:05:20.120Z,7.71
2019-04-16T07:06:36.011Z,7.77
2019-04-16T07:07:45.757Z,7.82
2019-04-16T07:08:52.242Z,7.87
2019-04-16T07:10:03.512Z,7.92
2019-04-16T07:11:14.274Z,7.96
2019-04-16T07:12:25.792Z,8.03
2019-04-16T07:13:41.886Z,8.09
2019-04-16T07:14:48.349Z,8.14
2019-04-16T07:15:58.841Z,8.19
2019-04-16T07:17:09.605Z,8.24
2019-04-16T07:18:21.302Z,8.29
2019-04-16T07:19:31.252Z,8.33
2019-04-16T07:20:45.740Z,8.36
2019-04-16T07:21:53.281Z,8.39
2019-04-16T07:23:04.050Z,8.43
2019-04-16T07:24:15.376Z,8.47
2019-04-16T07:25:27.966Z,8.51
2019-04-16T07:26:39.550Z,8.56
2019-04-16T07:27:52.091Z,8.61
2019-04-16T07:28:59.935Z,8.67
2019-04-16T07:30:09.789Z,8.71
2019-04-16T07:31:32.787Z,8.75
2019-04-16T07:32:31.699Z,8.78
2019-04-16T07:33:42.479Z,8.84
2019-04-16T07:34:53.450Z,8.88
2019-04-16T07:36:04.539Z,8.92
2019-04-16T07:37:15.338Z,8.98
2019-04-16T07:38:26.125Z,9.02
2019-04-16T07:39:37.860Z,9.07
2019-04-16T07:40:47.712Z,9.12
2019-04-16T07:42:09.500Z,9.19
2019-04-16T07:43:09.780Z,9.24
2019-04-16T07:44:20.560Z,9.28
2019-04-16T07:45:31.348Z,9.33
2019-04-16T07:46:44.147Z,9.36
2019-04-16T07:47:53.414Z,9.40
2019-04-16T07:49:04.203Z,9.44
2019-04-16T07:50:15.493Z,9.49
2019-04-16T07:51:26.786Z,9.53
2019-04-16T07:52:38.951Z,9.57
2019-04-16T07:53:48.360Z,9.63
2019-04-16T07:54:59.161Z,9.68
2019-04-16T07:56:10.031Z,9.74
2019-04-16T07:57:20.756Z,9.80
2019-04-16T07:58:31.551Z,9.87
2019-04-16T07:59:42.356Z,9.95
2019-04-16T08:00:53.163Z,10.02
2019-04-16T08:02:03.957Z,10.11
2019-04-16T08:03:14.758Z,10.22
2019-04-16T08:04:29.230Z,10.32
2019-04-16T08:05:37.791Z,10.43
2019-04-16T08:06:48.287Z,10.53
2019-04-16T08:07:59.107Z,10.64
2019-04-16T08:09:09.921Z,10.72
2019-04-16T08:10:20.744Z,10.78
2019-04-16T08:11:31.556Z,10.85
2019-04-16T08:12:42.422Z,10.94
2019-04-16T08:13:53.171Z,11.05
2019-04-16T08:15:13.837Z,11.17
2019-04-16T08:16:14.810Z,11.30
2019-04-16T08:17:25.630Z,11.41
2019-04-16T08:18:36.950Z,11.50
2019-04-16T08:19:49.093Z,11.59
2019-04-16T08:21:02.642Z,11.69
2019-04-16T08:22:15.500Z,11.83
2019-04-16T08:23:23.180Z,12.04
2019-04-16T08:24:34.501Z,12.50
2019-04-16T08:25:45.331Z,14.03
2019-04-16T08:26:56.165Z,17.00
2019-04-16T08:28:07.712Z,19.99
2019-04-16T08:29:19.303Z,21.96
2019-04-16T08:30:34.572Z,22.08
2019-04-16T08:31:44.499Z,20.62
2019-04-16T08:32:51.805Z,18.96
2019-04-16T08:34:03.144Z,17.72
2019-04-16T08:35:14.500Z,16.87
2019-04-16T08:36:25.850Z,16.33
2019-04-16T08:37:48.296Z,16.11
2019-04-16T08:38:48.551Z,16.37
2019-04-16T08:39:59.407Z,17.42
2019-04-16T08:41:12.939Z,19.39
2019-04-16T08:42:24.163Z,21.61
2019-04-16T08:43:32.496Z,23.45
2019-04-16T08:44:43.917Z,24.94
2019-04-16T08:45:55.353Z,26.33
2019-04-16T08:47:11.564Z,27.24
2019-04-16T08:48:18.924Z,28.18
2019-04-16T08:49:28.859Z,28.90
2019-04-16T08:50:39.915Z,29.67
2019-04-16T08:51:51.009Z,30.29
2019-04-16T08:53:02.130Z,30.75
2019-04-16T08:54:17.971Z,31.76
2019-04-16T08:55:24.936Z,32.83
2019-04-16T08:56:37.128Z,33.45
2019-04-16T08:57:48.862Z,33.63
2019-04-16T08:59:01.452Z,33.78
2019-04-16T09:00:15.213Z,33.92
2019-04-16T09:01:23.780Z,33.92
2019-04-16T09:02:35.095Z,33.97
2019-04-16T09:03:46.926Z,34.46
2019-04-16T09:04:58.278Z,35.06
2019-04-16T09:06:12.801Z,35.46
2019-04-16T09:07:21.044Z,35.81
2019-04-16T09:08:32.472Z,36.35
2019-04-16T09:09:43.906Z,36.51
2019-04-16T09:10:55.362Z,36.64
2019-04-16T09:12:08.886Z,36.84
2019-04-16T09:13:19.211Z,37.04
2019-04-16T09:14:30.697Z,37.50
2019-04-16T09:15:42.693Z,37.94
2019-04-16T09:16:54.204Z,37.73
2019-04-16T09:18:05.712Z,36.87
2019-04-16T09:19:17.241Z,36.51
2019-04-16T09:20:29.261Z,36.68
2019-04-16T09:21:44.149Z,37.14
2019-04-16T09:22:53.787Z,37.78
2019-04-16T09:24:08.904Z,38.57
2019-04-16T09:25:15.622Z,39.23
2019-04-16T09:26:27.715Z,39.72
2019-04-16T09:27:39.319Z,40.37
2019-04-16T09:28:51.439Z,41.07
2019-04-16T09:30:03.568Z,41.46
2019-04-16T09:31:15.219Z,41.37
2019-04-16T09:32:28.168Z,41.19
2019-04-16T09:33:39.093Z,41.00
2019-04-16T09:34:51.273Z,40.90
2019-04-16T09:36:02.970Z,40.67
2019-04-16T09:37:15.165Z,40.50
2019-04-16T09:38:27.397Z,40.73
2019-04-16T09:39:39.142Z,41.06
2019-04-16T09:40:50.873Z,41.47
2019-04-16T09:42:03.107Z,41.86
2019-04-16T09:43:17.831Z,41.92
2019-04-16T09:44:31.535Z,41.89
2019-04-16T09:45:39.381Z,42.04
2019-04-16T09:46:52.312Z,42.29
2019-04-16T09:48:03.915Z,42.53
2019-04-16T09:49:15.236Z,42.73
2019-04-16T09:50:27.532Z,42.90
2019-04-16T09:51:39.846Z,42.87
2019-04-16T09:52:55.403Z,42.60
2019-04-16T09:54:04.496Z,42.27
2019-04-16T09:55:18.869Z,42.07
2019-04-16T09:56:29.674Z,42.05
2019-04-16T09:57:40.945Z,42.19
2019-04-16T09:58:52.816Z,42.43
2019-04-16T10:00:04.755Z,42.56
2019-04-16T10:01:16.789Z,42.66
2019-04-16T10:02:28.978Z,42.92
2019-04-16T10:03:40.885Z,43.28
2019-04-16T10:04:52.808Z,43.77
2019-04-16T10:06:05.765Z,44.14
2019-04-16T10:07:16.672Z,44.30
2019-04-16T10:08:29.513Z,44.42
2019-04-16T10:09:40.522Z,44.42
2019-04-16T10:10:52.960Z,44.22
2019-04-16T10:12:07.597Z,43.91
2019-04-16T10:13:29.429Z,43.69
2019-04-16T10:14:28.863Z,43.35
2019-04-16T10:15:40.838Z,43.03
2019-04-16T10:16:52.819Z,42.62
2019-04-16T10:18:04.828Z,42.15
2019-04-16T10:19:17.025Z,41.62
2019-04-16T10:20:28.830Z,40.98
2019-04-16T10:21:40.843Z,40.35
2019-04-16T10:22:53.344Z,39.81
2019-04-16T10:24:05.362Z,39.49
2019-04-16T10:25:17.422Z,39.23
2019-04-16T10:26:29.429Z,39.07
2019-04-16T10:27:41.499Z,38.72
2019-04-16T10:28:53.514Z,38.39
2019-04-16T10:30:06.070Z,38.20
2019-04-16T10:31:18.125Z,37.98
2019-04-16T10:32:30.207Z,37.64
2019-04-16T10:33:42.232Z,37.41
2019-04-16T10:34:54.305Z,37.20
2019-04-16T10:36:06.524Z,37.02
2019-04-16T10:37:18.553Z,36.96
2019-04-16T10:38:31.122Z,36.84
2019-04-16T10:39:43.371Z,36.60
2019-04-16T10:40:55.447Z,36.49
2019-04-16T10:42:07.521Z,36.35
2019-04-16T10:43:19.731Z,35.59
2019-04-16T10:44:31.651Z,34.52
2019-04-16T10:45:43.752Z,33.48
2019-04-16T10:46:55.797Z,32.52
2019-04-16T10:48:07.981Z,31.91
2019-04-16T10:49:19.934Z,31.49
2019-04-16T10:50:32.554Z,31.23
2019-04-16T10:51:44.560Z,31.05
2019-04-16T10:52:57.110Z,30.91
2019-04-16T10:54:09.202Z,31.08
2019-04-16T10:55:21.265Z,30.95
2019-04-16T10:56:33.346Z,30.84
2019-04-16T10:57:45.409Z,31.07
2019-04-16T10:58:57.473Z,31.13
2019-04-16T11:00:10.054Z,31.41
2019-04-16T11:01:22.107Z,31.44
2019-04-16T11:02:34.196Z,31.44
2019-04-16T11:03:46.262Z,31.56
2019-04-16T11:04:58.354Z,31.33
2019-04-16T11:06:10.430Z,31.37
2019-04-16T11:07:22.494Z,31.28
2019-04-16T11:08:34.574Z,31.70
2019-04-16T11:09:46.676Z,32.09
2019-04-16T11:10:58.729Z,31.43
2019-04-16T11:12:10.855Z,31.47
2019-04-16T11:13:22.928Z,31.86
2019-04-16T11:14:34.990Z,31.53
2019-04-16T11:15:47.071Z,31.61
2019-04-16T11:16:59.168Z,32.14
2019-04-16T11:18:11.251Z,33.08
2019-04-16T11:19:23.307Z,34.42
2019-04-16T11:20:35.468Z,35.41
2019-04-16T11:21:47.441Z,36.50
2019-04-16T11:22:59.524Z,37.43
2019-04-16T11:24:11.755Z,37.83
2019-04-16T11:25:23.680Z,37.74
2019-04-16T11:26:36.760Z,37.47
2019-04-16T11:27:48.872Z,37.48
2019-04-16T11:29:01.000Z,37.52
2019-04-16T11:30:13.064Z,37.25
2019-04-16T11:31:25.174Z,36.96
2019-04-16T11:32:39.910Z,37.18
2019-04-16T11:33:49.415Z,36.75
2019-04-16T11:35:01.544Z,36.17
2019-04-16T11:36:19.541Z,35.71
2019-04-16T11:37:26.758Z,35.45
2019-04-16T11:38:38.900Z,35.23
2019-04-16T11:39:51.024Z,35.20
2019-04-16T11:41:03.115Z,35.22
2019-04-16T11:42:15.213Z,35.18
2019-04-16T11:43:27.340Z,35.12
2019-04-16T11:44:39.452Z,35.60
2019-04-16T11:45:51.541Z,35.96
2019-04-16T11:47:03.810Z,35.99
2019-04-16T11:48:15.755Z,35.81
2019-04-16T11:49:27.820Z,35.46
2019-04-16T11:50:39.891Z,35.23
2019-04-16T11:51:51.965Z,35.52
2019-04-16T11:53:04.051Z,35.59
2019-04-16T11:54:16.228Z,35.74
2019-04-16T11:55:28.194Z,35.39
2019-04-16T11:56:40.275Z,35.10
2019-04-16T11:57:53.330Z,34.77
2019-04-16T11:59:05.369Z,34.27
2019-04-16T12:00:17.450Z,33.51
2019-04-16T12:01:29.467Z,33.60
2019-04-16T12:02:41.544Z,33.54
2019-04-16T12:03:56.080Z,33.39
2019-04-16T12:05:05.781Z,33.18
2019-04-16T12:06:27.683Z,32.49
2019-04-16T12:07:30.138Z,31.79
2019-04-16T12:08:42.156Z,30.70
2019-04-16T12:09:54.205Z,29.45
2019-04-16T12:11:06.264Z,28.96
2019-04-16T12:12:18.214Z,28.80
2019-04-16T12:13:30.279Z,28.87
2019-04-16T12:14:43.510Z,29.15
2019-04-16T12:15:54.287Z,29.57
2019-04-16T12:17:06.335Z,29.93
2019-04-16T12:18:18.333Z,29.98
2019-04-16T12:19:30.343Z,29.96
2019-04-16T12:20:42.422Z,30.27
2019-04-16T12:21:54.404Z,30.68
2019-04-16T12:23:06.480Z,30.70
2019-04-16T12:24:18.729Z,30.67
2019-04-16T12:25:31.057Z,30.94
2019-04-16T12:26:43.067Z,31.29
2019-04-16T12:27:55.115Z,31.40
2019-04-16T12:29:07.194Z,31.58
2019-04-16T12:30:19.228Z,31.92
2019-04-16T12:31:32.255Z,32.35
2019-04-16T12:32:44.376Z,32.71
2019-04-16T12:33:56.525Z,33.07
2019-04-16T12:35:08.539Z,33.55
2019-04-16T12:36:20.605Z,33.96
2019-04-16T12:37:37.310Z,34.14
2019-04-16T12:38:44.747Z,33.83
2019-04-16T12:39:56.779Z,33.82
2019-04-16T12:41:08.875Z,33.84
2019-04-16T12:42:20.926Z,34.17
2019-04-16T12:43:33.007Z,34.06
2019-04-16T12:44:46.002Z,34.15
2019-04-16T12:45:57.126Z,34.42
2019-04-16T12:47:09.192Z,34.43
2019-04-16T12:48:21.297Z,34.20
2019-04-16T12:49:33.370Z,34.40
2019-04-16T12:50:45.438Z,34.41
2019-04-16T12:51:57.477Z,34.64
2019-04-16T12:53:09.554Z,34.75
2019-04-16T12:54:25.251Z,34.65
2019-04-16T12:55:33.691Z,34.09
2019-04-16T12:56:45.802Z,33.96
2019-04-16T12:57:58.981Z,33.80
2019-04-16T12:59:10.392Z,33.67
2019-04-16T13:00:26.495Z,33.51
2019-04-16T13:01:36.425Z,32.96
2019-04-16T13:02:46.568Z,32.95
2019-04-16T13:03:58.619Z,33.22
2019-04-16T13:05:10.917Z,32.84
2019-04-16T13:06:26.124Z,32.14
2019-04-16T13:07:34.765Z,32.22
2019-04-16T13:08:46.811Z,32.17
2019-04-16T13:09:58.844Z,32.17
2019-04-16T13:11:10.884Z,32.20
2019-04-16T13:12:22.917Z,31.99
2019-04-16T13:13:34.925Z,31.51
2019-04-16T13:15:00.042Z,30.78
2019-04-16T13:15:58.895Z,30.19
2019-04-16T13:17:10.866Z,29.82
2019-04-16T13:18:22.826Z,29.65
2019-04-16T13:19:34.766Z,29.38
2019-04-16T13:20:46.695Z,29.25
2019-04-16T13:21:59.997Z,29.21
2019-04-16T13:23:10.543Z,28.77
2019-04-16T13:24:22.454Z,28.54
2019-04-16T13:25:34.495Z,28.51
2019-04-16T13:26:46.452Z,28.56
2019-04-16T13:27:58.351Z,28.91
2019-04-16T13:29:10.767Z,29.13
2019-04-16T13:30:22.690Z,29.53
2019-04-16T13:31:36.373Z,29.81
2019-04-16T13:32:46.571Z,29.85
2019-04-16T13:33:58.503Z,29.86
2019-04-16T13:35:10.441Z,29.67
2019-04-16T13:36:26.734Z,29.59
2019-04-16T13:37:37.799Z,29.51
2019-04-16T13:38:46.504Z,29.22
2019-04-16T13:39:59.634Z,28.69
2019-04-16T13:42:22.356Z,28.43
2019-04-16T13:43:36.812Z,28.57
2019-04-16T13:44:47.697Z,28.68
2019-04-16T13:45:59.625Z,28.69
2019-04-16T13:47:11.787Z,28.47
2019-04-16T13:48:27.300Z,28.08
2019-04-16T13:49:35.402Z,27.84
2019-04-16T13:50:47.316Z,27.78
2019-04-16T13:51:59.239Z,27.54
2019-04-16T13:53:11.643Z,27.24
2019-04-16T13:54:23.561Z,27.14
2019-04-16T13:55:38.277Z,26.88
2019-04-16T13:56:50.203Z,26.26
2019-04-16T13:58:00.299Z,26.15
2019-04-16T13:59:12.126Z,26.34
2019-04-16T14:00:23.994Z,26.33
2019-04-16T14:01:38.758Z,25.97
2019-04-16T14:02:50.792Z,25.71
2019-04-16T14:03:59.552Z,25.71
2019-04-16T14:05:11.565Z,25.99
2019-04-16T14:06:23.093Z,26.33
2019-04-16T14:07:34.890Z,26.71
2019-04-16T14:08:46.669Z,26.97
2019-04-16T14:09:58.462Z,27.11
2019-04-16T14:11:10.230Z,27.07
2019-04-16T14:12:28.015Z,27.30
2019-04-16T14:13:33.765Z,27.50
2019-04-16T14:14:46.658Z,27.68
2019-04-16T14:15:57.297Z,27.51
2019-04-16T14:17:11.081Z,27.10
2019-04-16T14:18:21.869Z,26.75
2019-04-16T14:19:34.867Z,26.50
2019-04-16T14:20:45.268Z,26.19
2019-04-16T14:21:56.982Z,25.58
2019-04-16T14:23:08.690Z,25.57
2019-04-16T14:24:20.397Z,25.87
2019-04-16T14:25:32.108Z,26.17
2019-04-16T14:26:43.826Z,26.43
2019-04-16T14:27:55.990Z,26.39
2019-04-16T14:29:07.825Z,25.81
2019-04-16T14:30:18.849Z,25.21
2019-04-16T14:31:30.487Z,24.96
2019-04-16T14:32:42.119Z,24.75
2019-04-16T14:33:54.233Z,24.59
2019-04-16T14:35:05.829Z,24.35
2019-04-16T14:36:17.397Z,23.93
2019-04-16T14:37:28.961Z,23.51
2019-04-16T14:38:40.515Z,23.37
2019-04-16T14:39:52.043Z,23.33
2019-04-16T14:41:03.883Z,23.31
2019-04-16T14:42:15.067Z,23.33
2019-04-16T14:43:29.161Z,23.36
2019-04-16T14:44:38.521Z,23.33
2019-04-16T14:45:58.051Z,23.38
2019-04-16T14:47:02.011Z,23.41
2019-04-16T14:48:12.910Z,23.29
2019-04-16T14:49:24.369Z,23.33
2019-04-16T14:50:35.819Z,23.52
2019-04-16T14:51:47.300Z,23.73
2019-04-16T14:52:58.751Z,23.57
2019-04-16T14:54:10.210Z,23.35
2019-04-16T14:55:21.660Z,23.37
2019-04-16T14:56:33.106Z,23.46
2019-04-16T14:57:44.557Z,23.47
2019-04-16T14:58:56.027Z,23.57
2019-04-16T15:00:07.458Z,23.81
2019-04-16T15:01:18.894Z,23.94
2019-04-16T15:02:30.326Z,24.11
2019-04-16T15:03:43.404Z,23.98
2019-04-16T15:04:56.862Z,23.76
2019-04-16T15:06:04.597Z,23.56
2019-04-16T15:07:17.000Z,23.47
2019-04-16T15:08:28.470Z,23.24
2019-04-16T15:09:40.359Z,23.14
2019-04-16T15:10:52.747Z,23.05
2019-04-16T15:12:07.487Z,22.91
2019-04-16T15:13:15.975Z,22.70
2019-04-16T15:14:27.851Z,22.48
2019-04-16T15:15:39.209Z,22.19
2019-04-16T15:16:51.050Z,21.86
2019-04-16T15:18:02.876Z,21.72
2019-04-16T15:19:14.199Z,21.56
2019-04-16T15:20:25.528Z,21.41
2019-04-16T15:21:36.841Z,21.20
2019-04-16T15:22:48.146Z,20.98
2019-04-16T15:24:01.868Z,20.84
2019-04-16T15:25:10.772Z,20.74
2019-04-16T15:26:22.054Z,20.75
2019-04-16T15:27:33.334Z,20.82
2019-04-16T15:28:44.611Z,20.82
2019-04-16T15:29:56.684Z,20.80
2019-04-16T15:31:07.384Z,20.78
2019-04-16T15:32:19.483Z,20.83
2019-04-16T15:33:30.745Z,20.99
2019-04-16T15:34:43.117Z,21.08
2019-04-16T15:35:53.278Z,21.19